sensor_id;sensor_type;location;lat;lon;timestamp;temperature;humidity
12421;DHT22;6275;43.688;1.408;2023-03-31T00:01:41;13.40;99.90
12421;DHT22;6275;43.688;1.408;2023-03-31T00:04:09;13.50;99.90
12421;DHT22;6275;43.688;1.408;2023-03-31T00:06:40;13.60;99.90
12421;DHT22;6275;43.688;1.408;2023-03-31T00:09:11;13.70;99.90
12421;DHT22;6275;43.688;1.408;2023-03-31T00:11:39;13.80;99.90
12421;DHT22;6275;43.688;1.408;2023-03-31T00:14:06;13.90;99.90
12421;DHT22;6275;43.688;1.408;2023-03-31T00:16:34;14.00;99.90
12421;DHT22;6275;43.688;1.408;2023-03-31T00:19:01;13.90;99.90
12421;DHT22;6275;43.688;1.408;2023-03-31T00:21:28;14.00;99.90
12421;DHT22;6275;43.688;1.408;2023-03-31T00:24:00;14.00;99.90
12421;DHT22;6275;43.688;1.408;2023-03-31T00:26:28;14.00;99.90
12421;DHT22;6275;43.688;1.408;2023-03-31T00:28:55;14.00;99.90
12421;DHT22;6275;43.688;1.408;2023-03-31T00:31:22;14.10;99.90
12421;DHT22;6275;43.688;1.408;2023-03-31T00:33:49;14.20;99.90
12421;DHT22;6275;43.688;1.408;2023-03-31T00:36:16;14.20;99.90
12421;DHT22;6275;43.688;1.408;2023-03-31T00:38:47;14.10;99.90
12421;DHT22;6275;43.688;1.408;2023-03-31T00:41:14;14.10;99.90
12421;DHT22;6275;43.688;1.408;2023-03-31T00:43:59;14.10;99.90
12421;DHT22;6275;43.688;1.408;2023-03-31T00:46:28;14.30;99.90
12421;DHT22;6275;43.688;1.408;2023-03-31T00:48:56;14.30;99.90
12421;DHT22;6275;43.688;1.408;2023-03-31T00:51:24;14.30;99.90
12421;DHT22;6275;43.688;1.408;2023-03-31T00:53:56;14.30;99.90
12421;DHT22;6275;43.688;1.408;2023-03-31T00:56:25;14.50;99.90
12421;DHT22;6275;43.688;1.408;2023-03-31T00:58:54;14.50;99.90
12421;DHT22;6275;43.688;1.408;2023-03-31T01:01:23;14.50;99.90
12421;DHT22;6275;43.688;1.408;2023-03-31T01:03:50;14.60;99.90
12421;DHT22;6275;43.688;1.408;2023-03-31T01:06:18;14.60;99.90
12421;DHT22;6275;43.688;1.408;2023-03-31T01:08:50;14.60;99.90
12421;DHT22;6275;43.688;1.408;2023-03-31T01:11:18;14.60;99.90
12421;DHT22;6275;43.688;1.408;2023-03-31T01:13:45;14.70;99.90
12421;DHT22;6275;43.688;1.408;2023-03-31T01:16:16;14.70;99.90
12421;DHT22;6275;43.688;1.408;2023-03-31T13:09:05;9.20;99.90
12421;DHT22;6275;43.688;1.408;2023-03-31T13:11:37;9.00;99.90
12421;DHT22;6275;43.688;1.408;2023-03-31T13:14:22;8.70;99.90
12421;DHT22;6275;43.688;1.408;2023-03-31T13:16:50;8.60;99.90
12421;DHT22;6275;43.688;1.408;2023-03-31T13:21:58;8.70;99.90
12421;DHT22;6275;43.688;1.408;2023-03-31T13:24:26;8.70;99.90
12421;DHT22;6275;43.688;1.408;2023-03-31T13:26:55;8.80;99.90
12421;DHT22;6275;43.688;1.408;2023-03-31T13:29:25;9.00;99.90
12421;DHT22;6275;43.688;1.408;2023-03-31T15:13:01;15.00;99.90
12421;DHT22;6275;43.688;1.408;2023-03-31T15:15:32;15.00;99.90
12421;DHT22;6275;43.688;1.408;2023-03-31T15:17:59;14.90;99.90
12421;DHT22;6275;43.688;1.408;2023-03-31T15:20:28;14.90;99.90
12421;DHT22;6275;43.688;1.408;2023-03-31T15:22:55;14.90;99.90
12421;DHT22;6275;43.688;1.408;2023-03-31T15:25:23;14.80;99.90
12421;DHT22;6275;43.688;1.408;2023-03-31T15:28:02;14.70;99.90
12421;DHT22;6275;43.688;1.408;2023-03-31T15:30:31;12.80;99.90
12421;DHT22;6275;43.688;1.408;2023-03-31T15:32:58;11.60;99.90
12421;DHT22;6275;43.688;1.408;2023-03-31T15:35:45;10.90;99.90
12421;DHT22;6275;43.688;1.408;2023-03-31T15:38:58;10.30;99.90
12421;DHT22;6275;43.688;1.408;2023-03-31T15:41:29;9.80;99.90
12421;DHT22;6275;43.688;1.408;2023-03-31T15:48:35;9.30;99.90
12421;DHT22;6275;43.688;1.408;2023-03-31T15:51:17;9.40;99.90
12421;DHT22;6275;43.688;1.408;2023-03-31T15:53:50;9.30;99.90
12421;DHT22;6275;43.688;1.408;2023-03-31T15:56:42;9.40;99.90
12421;DHT22;6275;43.688;1.408;2023-03-31T15:59:25;9.50;99.90
12421;DHT22;6275;43.688;1.408;2023-03-31T16:02:19;9.50;99.90
12421;DHT22;6275;43.688;1.408;2023-03-31T16:04:49;9.50;99.90
12421;DHT22;6275;43.688;1.408;2023-03-31T16:07:19;9.40;99.90
12421;DHT22;6275;43.688;1.408;2023-03-31T16:09:49;9.50;99.90
12421;DHT22;6275;43.688;1.408;2023-03-31T16:14:51;9.40;99.90
12421;DHT22;6275;43.688;1.408;2023-03-31T16:17:50;9.30;99.90
12421;DHT22;6275;43.688;1.408;2023-03-31T16:20:22;9.60;99.90
12421;DHT22;6275;43.688;1.408;2023-03-31T16:22:53;9.80;99.90
12421;DHT22;6275;43.688;1.408;2023-03-31T16:25:24;9.80;99.90
12421;DHT22;6275;43.688;1.408;2023-03-31T16:27:57;9.70;99.90
12421;DHT22;6275;43.688;1.408;2023-03-31T16:30:40;9.80;99.90
12421;DHT22;6275;43.688;1.408;2023-03-31T16:33:17;9.80;99.90
12421;DHT22;6275;43.688;1.408;2023-03-31T16:35:46;9.80;99.90
12421;DHT22;6275;43.688;1.408;2023-03-31T16:38:20;10.00;99.90
12421;DHT22;6275;43.688;1.408;2023-03-31T16:40:49;10.50;99.90
12421;DHT22;6275;43.688;1.408;2023-03-31T16:43:20;10.40;99.90
12421;DHT22;6275;43.688;1.408;2023-03-31T16:45:52;10.20;99.90
12421;DHT22;6275;43.688;1.408;2023-03-31T16:48:21;10.10;99.90
12421;DHT22;6275;43.688;1.408;2023-03-31T16:50:50;10.30;99.90
12421;DHT22;6275;43.688;1.408;2023-03-31T16:53:21;10.50;99.90
12421;DHT22;6275;43.688;1.408;2023-03-31T16:55:49;10.70;99.90
12421;DHT22;6275;43.688;1.408;2023-03-31T16:58:16;10.80;99.90
12421;DHT22;6275;43.688;1.408;2023-03-31T17:00:44;11.00;99.90
12421;DHT22;6275;43.688;1.408;2023-03-31T17:03:12;11.00;99.90
12421;DHT22;6275;43.688;1.408;2023-03-31T17:05:46;11.00;99.90
12421;DHT22;6275;43.688;1.408;2023-03-31T17:08:14;11.10;99.90
12421;DHT22;6275;43.688;1.408;2023-03-31T17:10:50;11.00;99.90
12421;DHT22;6275;43.688;1.408;2023-03-31T17:13:18;11.30;99.90
12421;DHT22;6275;43.688;1.408;2023-03-31T17:15:45;11.50;99.90
12421;DHT22;6275;43.688;1.408;2023-03-31T17:18:14;11.60;99.90
12421;DHT22;6275;43.688;1.408;2023-03-31T17:20:41;11.70;99.90
12421;DHT22;6275;43.688;1.408;2023-03-31T17:23:08;12.20;99.90
12421;DHT22;6275;43.688;1.408;2023-03-31T17:25:35;12.30;99.90
12421;DHT22;6275;43.688;1.408;2023-03-31T17:28:05;12.40;99.90
12421;DHT22;6275;43.688;1.408;2023-03-31T17:33:02;12.10;99.90
12421;DHT22;6275;43.688;1.408;2023-03-31T17:35:30;11.70;99.90
12421;DHT22;6275;43.688;1.408;2023-03-31T17:37:56;11.60;99.90
12421;DHT22;6275;43.688;1.408;2023-03-31T17:40:24;11.40;99.90
12421;DHT22;6275;43.688;1.408;2023-03-31T17:42:53;11.40;99.90
12421;DHT22;6275;43.688;1.408;2023-03-31T17:45:20;11.30;99.90
12421;DHT22;6275;43.688;1.408;2023-03-31T17:47:47;11.30;99.90
12421;DHT22;6275;43.688;1.408;2023-03-31T17:50:14;11.30;99.90
12421;DHT22;6275;43.688;1.408;2023-03-31T17:52:41;11.40;99.90
12421;DHT22;6275;43.688;1.408;2023-03-31T17:55:08;11.40;99.90
12421;DHT22;6275;43.688;1.408;2023-03-31T17:57:35;11.30;99.90
12421;DHT22;6275;43.688;1.408;2023-03-31T18:00:04;11.30;99.90
12421;DHT22;6275;43.688;1.408;2023-03-31T18:02:31;11.20;99.90
12421;DHT22;6275;43.688;1.408;2023-03-31T18:04:58;11.10;99.90
12421;DHT22;6275;43.688;1.408;2023-03-31T18:07:26;11.10;99.90
12421;DHT22;6275;43.688;1.408;2023-03-31T18:09:53;11.00;99.90
12421;DHT22;6275;43.688;1.408;2023-03-31T18:12:20;11.00;99.90
12421;DHT22;6275;43.688;1.408;2023-03-31T18:14:47;11.10;99.90
12421;DHT22;6275;43.688;1.408;2023-03-31T18:17:15;11.10;99.90
12421;DHT22;6275;43.688;1.408;2023-03-31T18:19:42;11.00;99.90
12421;DHT22;6275;43.688;1.408;2023-03-31T18:22:10;11.00;99.90
12421;DHT22;6275;43.688;1.408;2023-03-31T18:24:37;11.00;99.90
12421;DHT22;6275;43.688;1.408;2023-03-31T18:27:05;11.00;99.90
12421;DHT22;6275;43.688;1.408;2023-03-31T18:29:32;11.00;99.90
12421;DHT22;6275;43.688;1.408;2023-03-31T18:31:59;11.00;99.90
12421;DHT22;6275;43.688;1.408;2023-03-31T18:34:27;11.00;99.90
12421;DHT22;6275;43.688;1.408;2023-03-31T18:36:54;11.00;99.90
12421;DHT22;6275;43.688;1.408;2023-03-31T18:39:21;11.00;99.90
12421;DHT22;6275;43.688;1.408;2023-03-31T18:41:48;11.10;99.90
12421;DHT22;6275;43.688;1.408;2023-03-31T18:44:16;11.00;99.90
12421;DHT22;6275;43.688;1.408;2023-03-31T18:46:43;11.00;99.90
12421;DHT22;6275;43.688;1.408;2023-03-31T18:49:11;11.00;99.90
12421;DHT22;6275;43.688;1.408;2023-03-31T18:51:39;11.10;99.90
12421;DHT22;6275;43.688;1.408;2023-03-31T18:54:06;10.60;99.90
12421;DHT22;6275;43.688;1.408;2023-03-31T18:56:33;10.50;99.90
12421;DHT22;6275;43.688;1.408;2023-03-31T18:59:00;10.20;99.90
12421;DHT22;6275;43.688;1.408;2023-03-31T19:01:30;10.20;99.90
12421;DHT22;6275;43.688;1.408;2023-03-31T19:03:59;10.20;99.90
12421;DHT22;6275;43.688;1.408;2023-03-31T19:06:26;10.10;99.90
12421;DHT22;6275;43.688;1.408;2023-03-31T19:08:55;10.20;99.90
12421;DHT22;6275;43.688;1.408;2023-03-31T19:11:22;10.20;99.90
12421;DHT22;6275;43.688;1.408;2023-03-31T19:13:49;10.10;99.90
12421;DHT22;6275;43.688;1.408;2023-03-31T19:16:19;10.10;99.90
12421;DHT22;6275;43.688;1.408;2023-03-31T19:18:46;10.10;99.90
12421;DHT22;6275;43.688;1.408;2023-03-31T19:21:13;10.20;99.90
12421;DHT22;6275;43.688;1.408;2023-03-31T19:23:41;10.20;99.90
12421;DHT22;6275;43.688;1.408;2023-03-31T19:26:10;10.20;99.90
12421;DHT22;6275;43.688;1.408;2023-03-31T19:28:39;10.10;99.90
12421;DHT22;6275;43.688;1.408;2023-03-31T19:31:06;10.10;99.90
12421;DHT22;6275;43.688;1.408;2023-03-31T19:33:33;10.20;99.90
12421;DHT22;6275;43.688;1.408;2023-03-31T19:36:01;10.20;99.90
12421;DHT22;6275;43.688;1.408;2023-03-31T19:38:28;10.20;99.90
12421;DHT22;6275;43.688;1.408;2023-03-31T19:40:57;10.30;99.90
12421;DHT22;6275;43.688;1.408;2023-03-31T19:43:26;10.30;99.90
12421;DHT22;6275;43.688;1.408;2023-03-31T19:45:57;10.30;99.90
12421;DHT22;6275;43.688;1.408;2023-03-31T19:48:26;10.40;99.90
12421;DHT22;6275;43.688;1.408;2023-03-31T19:50:55;10.40;99.90
12421;DHT22;6275;43.688;1.408;2023-03-31T19:53:23;10.50;99.90
12421;DHT22;6275;43.688;1.408;2023-03-31T19:56:02;10.60;99.90
12421;DHT22;6275;43.688;1.408;2023-03-31T19:58:30;10.60;99.90
12421;DHT22;6275;43.688;1.408;2023-03-31T20:01:02;10.70;99.90
12421;DHT22;6275;43.688;1.408;2023-03-31T20:03:30;10.70;99.90
12421;DHT22;6275;43.688;1.408;2023-03-31T20:06:09;10.70;99.90
12421;DHT22;6275;43.688;1.408;2023-03-31T20:08:39;10.70;99.90
12421;DHT22;6275;43.688;1.408;2023-03-31T20:11:10;10.70;99.90
12421;DHT22;6275;43.688;1.408;2023-03-31T20:13:39;10.70;99.90
12421;DHT22;6275;43.688;1.408;2023-03-31T20:16:09;10.80;99.90
12421;DHT22;6275;43.688;1.408;2023-03-31T20:18:37;10.90;99.90
12421;DHT22;6275;43.688;1.408;2023-03-31T20:21:07;11.00;99.90
12421;DHT22;6275;43.688;1.408;2023-03-31T20:23:36;10.90;99.90
12421;DHT22;6275;43.688;1.408;2023-03-31T20:26:06;10.70;99.90
12421;DHT22;6275;43.688;1.408;2023-03-31T20:28:36;10.50;99.90
12421;DHT22;6275;43.688;1.408;2023-03-31T20:31:07;10.40;99.90
12421;DHT22;6275;43.688;1.408;2023-03-31T20:33:35;10.40;99.90
12421;DHT22;6275;43.688;1.408;2023-03-31T20:36:10;10.40;99.90
12421;DHT22;6275;43.688;1.408;2023-03-31T20:38:39;10.50;99.90
12421;DHT22;6275;43.688;1.408;2023-03-31T20:41:07;10.60;99.90
12421;DHT22;6275;43.688;1.408;2023-03-31T20:43:35;10.60;99.90
12421;DHT22;6275;43.688;1.408;2023-03-31T20:46:04;10.60;99.90
12421;DHT22;6275;43.688;1.408;2023-03-31T20:48:43;10.60;99.90
12421;DHT22;6275;43.688;1.408;2023-03-31T20:51:13;10.60;99.90
12421;DHT22;6275;43.688;1.408;2023-03-31T20:53:43;10.70;99.90
12421;DHT22;6275;43.688;1.408;2023-03-31T20:56:15;10.70;99.90
12421;DHT22;6275;43.688;1.408;2023-03-31T20:58:43;10.80;99.90
12421;DHT22;6275;43.688;1.408;2023-03-31T21:01:11;10.80;99.90
12421;DHT22;6275;43.688;1.408;2023-03-31T21:03:39;10.70;99.90
12421;DHT22;6275;43.688;1.408;2023-03-31T21:06:10;10.70;99.90
12421;DHT22;6275;43.688;1.408;2023-03-31T21:08:38;10.70;99.90
12421;DHT22;6275;43.688;1.408;2023-03-31T21:11:05;10.70;99.90
12421;DHT22;6275;43.688;1.408;2023-03-31T21:13:33;10.70;99.90
12421;DHT22;6275;43.688;1.408;2023-03-31T21:16:00;10.80;99.90
12421;DHT22;6275;43.688;1.408;2023-03-31T21:18:28;10.80;99.90
12421;DHT22;6275;43.688;1.408;2023-03-31T21:20:57;10.90;99.90
12421;DHT22;6275;43.688;1.408;2023-03-31T21:23:26;10.90;99.90
12421;DHT22;6275;43.688;1.408;2023-03-31T21:25:55;10.90;99.90
12421;DHT22;6275;43.688;1.408;2023-03-31T21:28:27;10.90;99.90
12421;DHT22;6275;43.688;1.408;2023-03-31T21:31:06;10.80;99.90
12421;DHT22;6275;43.688;1.408;2023-03-31T21:33:34;10.90;99.90
12421;DHT22;6275;43.688;1.408;2023-03-31T21:36:09;11.00;99.90
12421;DHT22;6275;43.688;1.408;2023-03-31T21:38:37;11.00;99.90
12421;DHT22;6275;43.688;1.408;2023-03-31T21:41:09;11.00;99.90
12421;DHT22;6275;43.688;1.408;2023-03-31T21:43:37;11.00;99.90
12421;DHT22;6275;43.688;1.408;2023-03-31T21:46:05;11.00;99.90
12421;DHT22;6275;43.688;1.408;2023-03-31T21:48:33;11.00;99.90
12421;DHT22;6275;43.688;1.408;2023-03-31T21:51:00;11.10;99.90
12421;DHT22;6275;43.688;1.408;2023-03-31T21:53:29;11.10;99.90
12421;DHT22;6275;43.688;1.408;2023-03-31T21:55:57;11.10;99.90
12421;DHT22;6275;43.688;1.408;2023-03-31T21:58:26;11.00;99.90
12421;DHT22;6275;43.688;1.408;2023-03-31T22:00:59;11.00;99.90
12421;DHT22;6275;43.688;1.408;2023-03-31T22:03:28;10.90;99.90
12421;DHT22;6275;43.688;1.408;2023-03-31T22:05:58;10.80;99.90
12421;DHT22;6275;43.688;1.408;2023-03-31T22:08:25;10.80;99.90
12421;DHT22;6275;43.688;1.408;2023-03-31T22:10:53;10.70;99.90
12421;DHT22;6275;43.688;1.408;2023-03-31T22:13:22;10.70;99.90
12421;DHT22;6275;43.688;1.408;2023-03-31T22:15:49;10.70;99.90
12421;DHT22;6275;43.688;1.408;2023-03-31T22:18:16;10.70;99.90
12421;DHT22;6275;43.688;1.408;2023-03-31T22:20:44;10.70;99.90
12421;DHT22;6275;43.688;1.408;2023-03-31T22:23:12;10.70;99.90
12421;DHT22;6275;43.688;1.408;2023-03-31T22:25:39;10.70;99.90
12421;DHT22;6275;43.688;1.408;2023-03-31T22:28:07;10.70;99.90
12421;DHT22;6275;43.688;1.408;2023-03-31T22:30:35;10.70;99.90
12421;DHT22;6275;43.688;1.408;2023-03-31T22:33:02;10.80;99.90
12421;DHT22;6275;43.688;1.408;2023-03-31T22:35:29;10.80;99.90
12421;DHT22;6275;43.688;1.408;2023-03-31T22:37:57;10.80;99.90
12421;DHT22;6275;43.688;1.408;2023-03-31T22:40:24;10.70;99.90
12421;DHT22;6275;43.688;1.408;2023-03-31T22:42:51;10.80;99.90
12421;DHT22;6275;43.688;1.408;2023-03-31T22:45:20;10.80;99.90
12421;DHT22;6275;43.688;1.408;2023-03-31T22:47:47;10.80;99.90
12421;DHT22;6275;43.688;1.408;2023-03-31T22:50:14;10.80;99.90
12421;DHT22;6275;43.688;1.408;2023-03-31T22:52:41;10.80;99.90
12421;DHT22;6275;43.688;1.408;2023-03-31T22:55:10;10.70;99.90
12421;DHT22;6275;43.688;1.408;2023-03-31T22:57:38;10.80;99.90
12421;DHT22;6275;43.688;1.408;2023-03-31T23:00:05;10.80;99.90
12421;DHT22;6275;43.688;1.408;2023-03-31T23:02:32;10.70;99.90
12421;DHT22;6275;43.688;1.408;2023-03-31T23:04:59;10.70;99.90
12421;DHT22;6275;43.688;1.408;2023-03-31T23:07:26;10.70;99.90
12421;DHT22;6275;43.688;1.408;2023-03-31T23:09:54;10.70;99.90
12421;DHT22;6275;43.688;1.408;2023-03-31T23:12:25;10.70;99.90
12421;DHT22;6275;43.688;1.408;2023-03-31T23:14:52;10.70;99.90
12421;DHT22;6275;43.688;1.408;2023-03-31T23:17:19;10.70;99.90
12421;DHT22;6275;43.688;1.408;2023-03-31T23:19:46;10.70;99.90
12421;DHT22;6275;43.688;1.408;2023-03-31T23:22:13;10.70;99.90
12421;DHT22;6275;43.688;1.408;2023-03-31T23:24:40;11.00;99.90
12421;DHT22;6275;43.688;1.408;2023-03-31T23:27:07;10.80;99.90
12421;DHT22;6275;43.688;1.408;2023-03-31T23:29:34;10.80;99.90
12421;DHT22;6275;43.688;1.408;2023-03-31T23:32:02;10.80;99.90
12421;DHT22;6275;43.688;1.408;2023-03-31T23:34:29;10.70;99.90
12421;DHT22;6275;43.688;1.408;2023-03-31T23:36:56;10.70;99.90
12421;DHT22;6275;43.688;1.408;2023-03-31T23:39:23;10.70;99.90
12421;DHT22;6275;43.688;1.408;2023-03-31T23:41:50;10.70;99.90
12421;DHT22;6275;43.688;1.408;2023-03-31T23:44:18;10.70;99.90
12421;DHT22;6275;43.688;1.408;2023-03-31T23:46:44;10.70;99.90
12421;DHT22;6275;43.688;1.408;2023-03-31T23:49:11;10.60;99.90
12421;DHT22;6275;43.688;1.408;2023-03-31T23:51:38;10.50;99.90
12421;DHT22;6275;43.688;1.408;2023-03-31T23:54:05;10.50;99.90
12421;DHT22;6275;43.688;1.408;2023-03-31T23:56:33;10.40;99.90
12421;DHT22;6275;43.688;1.408;2023-03-31T23:59:00;10.50;99.90
